sensor_id;sensor_type;location;lat;lon;timestamp;temperature;humidity
5779;DHT22;2916;49.798;10.022;2024-03-23T00:53:26;10.20;1.00
5779;DHT22;2916;49.798;10.022;2024-03-23T00:55:51;10.20;1.00
5779;DHT22;2916;49.798;10.022;2024-03-23T00:58:18;10.20;1.00
5779;DHT22;2916;49.798;10.022;2024-03-23T01:00:44;10.10;1.00
5779;DHT22;2916;49.798;10.022;2024-03-23T01:03:11;10.10;1.00
5779;DHT22;2916;49.798;10.022;2024-03-23T01:05:37;10.10;1.00
5779;DHT22;2916;49.798;10.022;2024-03-23T01:08:04;10.10;1.00
5779;DHT22;2916;49.798;10.022;2024-03-23T01:10:32;10.20;1.00
5779;DHT22;2916;49.798;10.022;2024-03-23T01:12:59;10.20;1.00
5779;DHT22;2916;49.798;10.022;2024-03-23T01:15:25;10.20;1.00
5779;DHT22;2916;49.798;10.022;2024-03-23T01:17:52;10.20;1.00
5779;DHT22;2916;49.798;10.022;2024-03-23T01:20:17;10.20;1.00
5779;DHT22;2916;49.798;10.022;2024-03-23T01:22:44;10.20;1.00
5779;DHT22;2916;49.798;10.022;2024-03-23T01:25:10;10.10;1.00
5779;DHT22;2916;49.798;10.022;2024-03-23T01:27:39;10.20;1.00
5779;DHT22;2916;49.798;10.022;2024-03-23T01:30:06;10.10;1.00
5779;DHT22;2916;49.798;10.022;2024-03-23T01:32:33;10.10;1.00
5779;DHT22;2916;49.798;10.022;2024-03-23T01:34:59;10.10;1.00
5779;DHT22;2916;49.798;10.022;2024-03-23T01:37:26;10.10;1.00
5779;DHT22;2916;49.798;10.022;2024-03-23T01:39:52;10.10;1.00
5779;DHT22;2916;49.798;10.022;2024-03-23T01:42:19;10.10;1.00
5779;DHT22;2916;49.798;10.022;2024-03-23T01:44:47;10.20;1.00
5779;DHT22;2916;49.798;10.022;2024-03-23T01:47:15;10.10;1.00
5779;DHT22;2916;49.798;10.022;2024-03-23T01:49:41;10.10;1.00
5779;DHT22;2916;49.798;10.022;2024-03-23T01:52:08;10.10;1.00
5779;DHT22;2916;49.798;10.022;2024-03-23T01:54:35;10.00;1.00
5779;DHT22;2916;49.798;10.022;2024-03-23T01:57:01;10.10;1.00
5779;DHT22;2916;49.798;10.022;2024-03-23T01:59:28;10.10;1.00
5779;DHT22;2916;49.798;10.022;2024-03-23T02:01:55;10.20;1.00
5779;DHT22;2916;49.798;10.022;2024-03-23T02:04:22;10.20;1.00
5779;DHT22;2916;49.798;10.022;2024-03-23T02:06:48;10.30;1.00
5779;DHT22;2916;49.798;10.022;2024-03-23T02:09:15;10.30;1.00
5779;DHT22;2916;49.798;10.022;2024-03-23T02:11:41;10.40;1.00
5779;DHT22;2916;49.798;10.022;2024-03-23T02:14:08;10.40;1.00
5779;DHT22;2916;49.798;10.022;2024-03-23T02:16:34;10.40;1.00
5779;DHT22;2916;49.798;10.022;2024-03-23T02:19:02;10.50;1.00
5779;DHT22;2916;49.798;10.022;2024-03-23T02:21:28;10.50;1.00
5779;DHT22;2916;49.798;10.022;2024-03-23T02:23:59;10.50;1.00
5779;DHT22;2916;49.798;10.022;2024-03-23T02:26:24;10.60;1.00
5779;DHT22;2916;49.798;10.022;2024-03-23T02:28:51;10.60;1.00
5779;DHT22;2916;49.798;10.022;2024-03-23T02:31:17;10.70;1.00
5779;DHT22;2916;49.798;10.022;2024-03-23T02:33:44;10.70;1.00
5779;DHT22;2916;49.798;10.022;2024-03-23T02:36:10;10.80;1.00
5779;DHT22;2916;49.798;10.022;2024-03-23T02:38:37;10.80;1.00
5779;DHT22;2916;49.798;10.022;2024-03-23T02:41:04;10.80;1.00
5779;DHT22;2916;49.798;10.022;2024-03-23T02:43:32;10.90;1.00
5779;DHT22;2916;49.798;10.022;2024-03-23T02:45:58;10.90;1.00
5779;DHT22;2916;49.798;10.022;2024-03-23T02:48:24;11.00;1.00
5779;DHT22;2916;49.798;10.022;2024-03-23T02:50:50;11.00;1.00
5779;DHT22;2916;49.798;10.022;2024-03-23T02:53:17;11.10;1.00
5779;DHT22;2916;49.798;10.022;2024-03-23T02:55:43;11.10;1.00
5779;DHT22;2916;49.798;10.022;2024-03-23T02:58:12;11.10;1.00
5779;DHT22;2916;49.798;10.022;2024-03-23T03:00:37;11.20;1.00
5779;DHT22;2916;49.798;10.022;2024-03-23T03:03:05;11.20;1.00
5779;DHT22;2916;49.798;10.022;2024-03-23T03:05:30;11.20;1.00
5779;DHT22;2916;49.798;10.022;2024-03-23T03:07:58;11.30;1.00
5779;DHT22;2916;49.798;10.022;2024-03-23T03:10:23;11.30;1.00
5779;DHT22;2916;49.798;10.022;2024-03-23T03:12:50;11.30;1.00
5779;DHT22;2916;49.798;10.022;2024-03-23T03:15:18;11.40;1.00
5779;DHT22;2916;49.798;10.022;2024-03-23T03:17:45;11.30;1.00
5779;DHT22;2916;49.798;10.022;2024-03-23T03:20:11;11.10;1.00
5779;DHT22;2916;49.798;10.022;2024-03-23T03:22:39;11.20;1.00
5779;DHT22;2916;49.798;10.022;2024-03-23T03:25:06;11.20;1.00
5779;DHT22;2916;49.798;10.022;2024-03-23T03:27:33;11.20;1.00
5779;DHT22;2916;49.798;10.022;2024-03-23T03:30:00;11.10;1.00
5779;DHT22;2916;49.798;10.022;2024-03-23T03:32:29;11.10;1.00
5779;DHT22;2916;49.798;10.022;2024-03-23T03:34:55;11.20;1.00
5779;DHT22;2916;49.798;10.022;2024-03-23T03:37:22;11.20;1.00
5779;DHT22;2916;49.798;10.022;2024-03-23T03:39:48;11.30;1.00
5779;DHT22;2916;49.798;10.022;2024-03-23T03:42:15;11.30;1.00
5779;DHT22;2916;49.798;10.022;2024-03-23T03:44:41;11.40;1.00
5779;DHT22;2916;49.798;10.022;2024-03-23T03:47:08;11.50;1.00
5779;DHT22;2916;49.798;10.022;2024-03-23T03:49:35;11.50;1.00
5779;DHT22;2916;49.798;10.022;2024-03-23T03:52:02;11.50;1.00
5779;DHT22;2916;49.798;10.022;2024-03-23T03:54:28;11.60;1.00
5779;DHT22;2916;49.798;10.022;2024-03-23T03:56:55;11.60;1.00
5779;DHT22;2916;49.798;10.022;2024-03-23T03:59:21;11.50;1.00
5779;DHT22;2916;49.798;10.022;2024-03-23T04:01:48;11.50;1.00
5779;DHT22;2916;49.798;10.022;2024-03-23T04:04:14;11.50;1.00
5779;DHT22;2916;49.798;10.022;2024-03-23T04:06:43;11.40;1.00
5779;DHT22;2916;49.798;10.022;2024-03-23T04:09:09;11.30;1.00
5779;DHT22;2916;49.798;10.022;2024-03-23T04:11:36;11.20;1.00
5779;DHT22;2916;49.798;10.022;2024-03-23T04:14:02;11.20;1.00
5779;DHT22;2916;49.798;10.022;2024-03-23T04:16:33;11.20;1.00
5779;DHT22;2916;49.798;10.022;2024-03-23T04:19:00;11.20;1.00
5779;DHT22;2916;49.798;10.022;2024-03-23T04:21:27;11.10;1.00
5779;DHT22;2916;49.798;10.022;2024-03-23T04:23:54;11.10;1.00
5779;DHT22;2916;49.798;10.022;2024-03-23T04:26:21;11.10;1.00
5779;DHT22;2916;49.798;10.022;2024-03-23T04:28:47;11.00;2.00
5779;DHT22;2916;49.798;10.022;2024-03-23T04:31:14;11.00;1.00
5779;DHT22;2916;49.798;10.022;2024-03-23T04:33:40;11.00;1.00
5779;DHT22;2916;49.798;10.022;2024-03-23T04:36:07;11.00;1.00
5779;DHT22;2916;49.798;10.022;2024-03-23T04:38:33;10.90;1.10
5779;DHT22;2916;49.798;10.022;2024-03-23T04:41:01;10.90;1.00
5779;DHT22;2916;49.798;10.022;2024-03-23T04:43:28;10.90;1.00
5779;DHT22;2916;49.798;10.022;2024-03-23T04:45:55;10.90;1.00
5779;DHT22;2916;49.798;10.022;2024-03-23T04:48:23;10.90;1.00
5779;DHT22;2916;49.798;10.022;2024-03-23T04:50:54;10.90;1.00
5779;DHT22;2916;49.798;10.022;2024-03-23T04:53:23;10.90;1.00
5779;DHT22;2916;49.798;10.022;2024-03-23T04:55:53;10.90;1.00
5779;DHT22;2916;49.798;10.022;2024-03-23T04:58:22;10.90;1.00
5779;DHT22;2916;49.798;10.022;2024-03-23T05:00:52;10.90;1.00
5779;DHT22;2916;49.798;10.022;2024-03-23T05:03:19;10.80;1.00
5779;DHT22;2916;49.798;10.022;2024-03-23T05:05:46;10.80;1.00
5779;DHT22;2916;49.798;10.022;2024-03-23T05:08:13;10.80;1.00
5779;DHT22;2916;49.798;10.022;2024-03-23T05:10:41;10.70;1.00
5779;DHT22;2916;49.798;10.022;2024-03-23T05:13:07;10.70;1.00
5779;DHT22;2916;49.798;10.022;2024-03-23T05:15:35;10.80;1.00
5779;DHT22;2916;49.798;10.022;2024-03-23T05:18:02;10.70;1.00
5779;DHT22;2916;49.798;10.022;2024-03-23T05:20:29;10.70;1.00
5779;DHT22;2916;49.798;10.022;2024-03-23T05:22:55;10.70;1.00
5779;DHT22;2916;49.798;10.022;2024-03-23T05:25:22;10.70;1.00
5779;DHT22;2916;49.798;10.022;2024-03-23T05:27:48;10.70;1.00
5779;DHT22;2916;49.798;10.022;2024-03-23T05:30:15;10.60;1.00
5779;DHT22;2916;49.798;10.022;2024-03-23T05:32:42;10.60;1.00
5779;DHT22;2916;49.798;10.022;2024-03-23T05:35:10;10.70;1.00
5779;DHT22;2916;49.798;10.022;2024-03-23T05:37:37;10.70;1.00
5779;DHT22;2916;49.798;10.022;2024-03-23T05:40:05;10.60;1.00
5779;DHT22;2916;49.798;10.022;2024-03-23T05:42:31;10.70;1.00
5779;DHT22;2916;49.798;10.022;2024-03-23T05:44:58;10.70;1.00
5779;DHT22;2916;49.798;10.022;2024-03-23T05:47:23;10.70;1.00
5779;DHT22;2916;49.798;10.022;2024-03-23T05:49:52;10.60;1.00
5779;DHT22;2916;49.798;10.022;2024-03-23T05:52:18;10.60;1.00
5779;DHT22;2916;49.798;10.022;2024-03-23T05:54:46;10.60;1.20
5779;DHT22;2916;49.798;10.022;2024-03-23T05:57:12;10.60;1.00
5779;DHT22;2916;49.798;10.022;2024-03-23T05:59:39;10.60;1.00
5779;DHT22;2916;49.798;10.022;2024-03-23T06:02:05;10.60;1.00
5779;DHT22;2916;49.798;10.022;2024-03-23T06:04:33;10.60;2.10
5779;DHT22;2916;49.798;10.022;2024-03-23T06:07:00;10.60;2.80
5779;DHT22;2916;49.798;10.022;2024-03-23T06:09:27;10.60;4.10
5779;DHT22;2916;49.798;10.022;2024-03-23T06:11:53;10.60;1.00
5779;DHT22;2916;49.798;10.022;2024-03-23T06:14:20;10.70;1.00
5779;DHT22;2916;49.798;10.022;2024-03-23T06:16:46;10.70;1.00
5779;DHT22;2916;49.798;10.022;2024-03-23T06:19:13;10.70;1.00
5779;DHT22;2916;49.798;10.022;2024-03-23T06:21:43;10.60;1.00
5779;DHT22;2916;49.798;10.022;2024-03-23T06:24:11;10.60;1.00
5779;DHT22;2916;49.798;10.022;2024-03-23T06:26:37;10.50;1.00
5779;DHT22;2916;49.798;10.022;2024-03-23T06:29:04;10.40;1.00
5779;DHT22;2916;49.798;10.022;2024-03-23T06:31:30;10.30;1.00
5779;DHT22;2916;49.798;10.022;2024-03-23T06:33:57;10.20;2.50
5779;DHT22;2916;49.798;10.022;2024-03-23T06:36:23;10.10;4.10
5779;DHT22;2916;49.798;10.022;2024-03-23T06:38:50;10.10;7.80
5779;DHT22;2916;49.798;10.022;2024-03-23T06:41:18;10.10;9.50
5779;DHT22;2916;49.798;10.022;2024-03-23T06:43:45;10.10;10.30
5779;DHT22;2916;49.798;10.022;2024-03-23T06:46:11;10.10;12.70
5779;DHT22;2916;49.798;10.022;2024-03-23T06:48:38;10.00;3.80
5779;DHT22;2916;49.798;10.022;2024-03-23T06:51:04;10.00;2.40
5779;DHT22;2916;49.798;10.022;2024-03-23T06:53:32;9.80;3.00
5779;DHT22;2916;49.798;10.022;2024-03-23T06:55:58;9.80;4.60
5779;DHT22;2916;49.798;10.022;2024-03-23T06:58:28;9.80;1.80
5779;DHT22;2916;49.798;10.022;2024-03-23T07:00:53;9.80;3.00
5779;DHT22;2916;49.798;10.022;2024-03-23T07:03:20;9.80;3.00
5779;DHT22;2916;49.798;10.022;2024-03-23T07:05:47;9.80;1.80
5779;DHT22;2916;49.798;10.022;2024-03-23T07:08:14;9.60;1.30
5779;DHT22;2916;49.798;10.022;2024-03-23T07:10:46;9.70;1.00
5779;DHT22;2916;49.798;10.022;2024-03-23T07:13:13;9.50;1.00
5779;DHT22;2916;49.798;10.022;2024-03-23T07:15:40;9.40;1.00
5779;DHT22;2916;49.798;10.022;2024-03-23T07:18:07;9.50;1.00
5779;DHT22;2916;49.798;10.022;2024-03-23T07:20:33;9.40;1.00
5779;DHT22;2916;49.798;10.022;2024-03-23T07:23:00;9.20;1.00
5779;DHT22;2916;49.798;10.022;2024-03-23T07:25:26;9.20;1.00
5779;DHT22;2916;49.798;10.022;2024-03-23T07:27:54;9.10;1.00
5779;DHT22;2916;49.798;10.022;2024-03-23T07:30:20;8.90;1.00
5779;DHT22;2916;49.798;10.022;2024-03-23T07:32:49;8.80;1.00
5779;DHT22;2916;49.798;10.022;2024-03-23T07:35:14;8.80;1.00
5779;DHT22;2916;49.798;10.022;2024-03-23T07:37:43;8.70;1.00
5779;DHT22;2916;49.798;10.022;2024-03-23T07:40:09;8.50;1.00
5779;DHT22;2916;49.798;10.022;2024-03-23T07:42:37;8.30;1.00
5779;DHT22;2916;49.798;10.022;2024-03-23T07:45:04;8.30;1.00
5779;DHT22;2916;49.798;10.022;2024-03-23T07:47:31;8.30;1.00
5779;DHT22;2916;49.798;10.022;2024-03-23T07:49:58;8.30;1.00
5779;DHT22;2916;49.798;10.022;2024-03-23T07:52:28;8.30;1.00
5779;DHT22;2916;49.798;10.022;2024-03-23T07:54:54;8.30;1.00
5779;DHT22;2916;49.798;10.022;2024-03-23T07:57:21;8.20;1.00
5779;DHT22;2916;49.798;10.022;2024-03-23T07:59:47;8.30;1.00
5779;DHT22;2916;49.798;10.022;2024-03-23T08:02:14;8.20;1.00
5779;DHT22;2916;49.798;10.022;2024-03-23T08:04:39;8.10;1.00
5779;DHT22;2916;49.798;10.022;2024-03-23T08:07:08;8.10;1.00
5779;DHT22;2916;49.798;10.022;2024-03-23T08:09:34;8.10;1.00
5779;DHT22;2916;49.798;10.022;2024-03-23T08:12:00;8.00;1.00
5779;DHT22;2916;49.798;10.022;2024-03-23T08:14:27;8.10;1.00
5779;DHT22;2916;49.798;10.022;2024-03-23T08:16:54;8.20;1.00
5779;DHT22;2916;49.798;10.022;2024-03-23T08:19:20;8.20;1.00
5779;DHT22;2916;49.798;10.022;2024-03-23T08:21:47;8.10;1.00
5779;DHT22;2916;49.798;10.022;2024-03-23T08:24:14;8.20;1.00
5779;DHT22;2916;49.798;10.022;2024-03-23T08:26:41;8.10;1.00
5779;DHT22;2916;49.798;10.022;2024-03-23T08:29:07;8.30;1.00
5779;DHT22;2916;49.798;10.022;2024-03-23T08:31:34;8.30;1.00
5779;DHT22;2916;49.798;10.022;2024-03-23T08:34:00;8.40;1.00
5779;DHT22;2916;49.798;10.022;2024-03-23T08:36:27;8.50;1.00
5779;DHT22;2916;49.798;10.022;2024-03-23T08:38:53;8.50;1.00
5779;DHT22;2916;49.798;10.022;2024-03-23T08:41:22;8.50;1.00
5779;DHT22;2916;49.798;10.022;2024-03-23T08:43:48;8.60;1.00
5779;DHT22;2916;49.798;10.022;2024-03-23T08:46:16;8.80;1.00
5779;DHT22;2916;49.798;10.022;2024-03-23T08:48:43;8.70;1.00
5779;DHT22;2916;49.798;10.022;2024-03-23T08:51:12;8.70;1.00
5779;DHT22;2916;49.798;10.022;2024-03-23T08:53:38;8.80;1.00
5779;DHT22;2916;49.798;10.022;2024-03-23T08:56:06;8.80;1.00
5779;DHT22;2916;49.798;10.022;2024-03-23T08:58:35;8.60;1.00
5779;DHT22;2916;49.798;10.022;2024-03-23T09:01:07;8.60;1.00
5779;DHT22;2916;49.798;10.022;2024-03-23T09:03:33;8.70;1.00
5779;DHT22;2916;49.798;10.022;2024-03-23T09:06:02;8.70;1.00
5779;DHT22;2916;49.798;10.022;2024-03-23T09:08:31;8.60;1.00
5779;DHT22;2916;49.798;10.022;2024-03-23T09:11:03;8.70;1.00
5779;DHT22;2916;49.798;10.022;2024-03-23T09:13:31;8.80;1.00
5779;DHT22;2916;49.798;10.022;2024-03-23T09:16:00;8.80;1.00
5779;DHT22;2916;49.798;10.022;2024-03-23T09:18:26;8.80;1.00
5779;DHT22;2916;49.798;10.022;2024-03-23T09:20:52;8.90;1.00
5779;DHT22;2916;49.798;10.022;2024-03-23T09:23:20;8.90;1.00
5779;DHT22;2916;49.798;10.022;2024-03-23T09:25:47;8.80;1.00
5779;DHT22;2916;49.798;10.022;2024-03-23T09:28:13;8.70;1.00
5779;DHT22;2916;49.798;10.022;2024-03-23T09:30:40;8.80;1.00
5779;DHT22;2916;49.798;10.022;2024-03-23T09:33:09;8.70;1.00
5779;DHT22;2916;49.798;10.022;2024-03-23T09:35:37;8.90;1.00
5779;DHT22;2916;49.798;10.022;2024-03-23T09:38:03;8.90;1.00
5779;DHT22;2916;49.798;10.022;2024-03-23T09:40:31;9.10;1.00
5779;DHT22;2916;49.798;10.022;2024-03-23T09:42:57;9.50;1.00
5779;DHT22;2916;49.798;10.022;2024-03-23T09:45:27;9.80;1.00
5779;DHT22;2916;49.798;10.022;2024-03-23T09:47:55;10.00;1.00
5779;DHT22;2916;49.798;10.022;2024-03-23T09:50:23;9.70;1.00
5779;DHT22;2916;49.798;10.022;2024-03-23T09:52:49;9.60;1.00
5779;DHT22;2916;49.798;10.022;2024-03-23T09:55:16;9.70;1.00
5779;DHT22;2916;49.798;10.022;2024-03-23T09:57:42;10.20;1.00
5779;DHT22;2916;49.798;10.022;2024-03-23T10:00:10;10.30;1.00
5779;DHT22;2916;49.798;10.022;2024-03-23T10:02:37;10.30;1.00
5779;DHT22;2916;49.798;10.022;2024-03-23T10:05:06;10.50;1.00
5779;DHT22;2916;49.798;10.022;2024-03-23T10:07:46;10.70;1.00
5779;DHT22;2916;49.798;10.022;2024-03-23T10:10:13;10.60;1.00
5779;DHT22;2916;49.798;10.022;2024-03-23T10:12:44;10.50;1.00
5779;DHT22;2916;49.798;10.022;2024-03-23T10:15:18;10.40;1.00
5779;DHT22;2916;49.798;10.022;2024-03-23T10:17:44;10.50;1.00
5779;DHT22;2916;49.798;10.022;2024-03-23T10:20:11;10.60;1.00
5779;DHT22;2916;49.798;10.022;2024-03-23T10:22:38;10.50;1.00
5779;DHT22;2916;49.798;10.022;2024-03-23T10:25:10;10.40;1.00
5779;DHT22;2916;49.798;10.022;2024-03-23T10:27:37;10.30;1.00
5779;DHT22;2916;49.798;10.022;2024-03-23T10:30:10;10.50;1.00
5779;DHT22;2916;49.798;10.022;2024-03-23T10:32:38;10.90;1.00
5779;DHT22;2916;49.798;10.022;2024-03-23T10:35:17;11.10;1.00
5779;DHT22;2916;49.798;10.022;2024-03-23T10:37:45;11.20;1.00
5779;DHT22;2916;49.798;10.022;2024-03-23T10:40:14;11.60;1.00
5779;DHT22;2916;49.798;10.022;2024-03-23T10:42:41;11.80;1.00
5779;DHT22;2916;49.798;10.022;2024-03-23T10:45:08;11.60;1.00
5779;DHT22;2916;49.798;10.022;2024-03-23T10:47:36;11.40;1.00
5779;DHT22;2916;49.798;10.022;2024-03-23T10:50:03;11.40;1.00
5779;DHT22;2916;49.798;10.022;2024-03-23T10:52:32;11.40;1.00
5779;DHT22;2916;49.798;10.022;2024-03-23T10:54:59;11.00;1.00
5779;DHT22;2916;49.798;10.022;2024-03-23T10:57:34;11.20;1.00
5779;DHT22;2916;49.798;10.022;2024-03-23T11:00:02;11.30;1.00
5779;DHT22;2916;49.798;10.022;2024-03-23T11:02:29;11.60;1.00
5779;DHT22;2916;49.798;10.022;2024-03-23T11:04:55;11.70;1.00
5779;DHT22;2916;49.798;10.022;2024-03-23T11:07:31;11.60;1.00
5779;DHT22;2916;49.798;10.022;2024-03-23T11:09:58;11.80;1.00
5779;DHT22;2916;49.798;10.022;2024-03-23T11:12:30;11.70;1.00
5779;DHT22;2916;49.798;10.022;2024-03-23T11:15:00;11.60;1.00
5779;DHT22;2916;49.798;10.022;2024-03-23T11:17:28;11.50;1.00
5779;DHT22;2916;49.798;10.022;2024-03-23T11:19:55;11.70;1.00
5779;DHT22;2916;49.798;10.022;2024-03-23T11:22:39;11.70;1.00
5779;DHT22;2916;49.798;10.022;2024-03-23T11:25:13;11.50;1.00
5779;DHT22;2916;49.798;10.022;2024-03-23T11:27:42;11.50;1.00
5779;DHT22;2916;49.798;10.022;2024-03-23T11:30:16;11.40;1.00
5779;DHT22;2916;49.798;10.022;2024-03-23T11:32:44;11.40;1.00
5779;DHT22;2916;49.798;10.022;2024-03-23T11:35:10;11.30;1.00
5779;DHT22;2916;49.798;10.022;2024-03-23T11:37:38;11.30;1.00
5779;DHT22;2916;49.798;10.022;2024-03-23T11:40:20;11.80;1.00
5779;DHT22;2916;49.798;10.022;2024-03-23T11:42:55;11.70;1.00
5779;DHT22;2916;49.798;10.022;2024-03-23T11:45:21;11.70;1.00
5779;DHT22;2916;49.798;10.022;2024-03-23T11:47:48;11.70;1.00
5779;DHT22;2916;49.798;10.022;2024-03-23T11:50:19;11.80;1.00
5779;DHT22;2916;49.798;10.022;2024-03-23T11:52:46;11.50;1.00
5779;DHT22;2916;49.798;10.022;2024-03-23T11:55:12;11.50;1.00
5779;DHT22;2916;49.798;10.022;2024-03-23T11:57:39;11.80;1.00
5779;DHT22;2916;49.798;10.022;2024-03-23T12:03:01;12.00;1.00
5779;DHT22;2916;49.798;10.022;2024-03-23T12:05:29;12.30;1.00
5779;DHT22;2916;49.798;10.022;2024-03-23T12:07:55;12.40;1.00
5779;DHT22;2916;49.798;10.022;2024-03-23T12:10:22;12.20;1.00
5779;DHT22;2916;49.798;10.022;2024-03-23T12:13:00;12.10;1.00
5779;DHT22;2916;49.798;10.022;2024-03-23T12:15:27;12.30;1.00
5779;DHT22;2916;49.798;10.022;2024-03-23T12:18:07;12.00;1.00
5779;DHT22;2916;49.798;10.022;2024-03-23T12:20:34;12.00;1.00
5779;DHT22;2916;49.798;10.022;2024-03-23T12:23:10;12.20;1.00
5779;DHT22;2916;49.798;10.022;2024-03-23T12:25:38;12.30;1.00
5779;DHT22;2916;49.798;10.022;2024-03-23T12:28:05;12.50;1.00
5779;DHT22;2916;49.798;10.022;2024-03-23T12:30:34;12.80;1.00
5779;DHT22;2916;49.798;10.022;2024-03-23T12:33:00;12.80;1.00
5779;DHT22;2916;49.798;10.022;2024-03-23T12:35:28;12.70;1.00
5779;DHT22;2916;49.798;10.022;2024-03-23T12:37:54;12.30;1.00
5779;DHT22;2916;49.798;10.022;2024-03-23T12:40:21;12.20;1.00
5779;DHT22;2916;49.798;10.022;2024-03-23T12:42:47;12.10;1.00
5779;DHT22;2916;49.798;10.022;2024-03-23T12:45:14;11.50;1.00
5779;DHT22;2916;49.798;10.022;2024-03-23T12:47:40;10.80;1.00
5779;DHT22;2916;49.798;10.022;2024-03-23T12:50:08;10.30;1.00
5779;DHT22;2916;49.798;10.022;2024-03-23T12:52:36;9.70;1.00
5779;DHT22;2916;49.798;10.022;2024-03-23T12:55:04;9.50;1.00
5779;DHT22;2916;49.798;10.022;2024-03-23T12:57:31;9.40;1.00
5779;DHT22;2916;49.798;10.022;2024-03-23T12:59:59;9.20;1.00
5779;DHT22;2916;49.798;10.022;2024-03-23T13:02:25;9.10;1.00
5779;DHT22;2916;49.798;10.022;2024-03-23T13:04:53;9.40;1.00
5779;DHT22;2916;49.798;10.022;2024-03-23T13:07:20;9.80;1.00
5779;DHT22;2916;49.798;10.022;2024-03-23T13:09:50;9.90;1.00
5779;DHT22;2916;49.798;10.022;2024-03-23T13:12:17;10.20;1.00
5779;DHT22;2916;49.798;10.022;2024-03-23T13:14:44;10.00;1.00
5779;DHT22;2916;49.798;10.022;2024-03-23T13:17:10;10.10;1.00
5779;DHT22;2916;49.798;10.022;2024-03-23T13:19:38;10.20;1.00
5779;DHT22;2916;49.798;10.022;2024-03-23T13:22:04;10.30;1.00
5779;DHT22;2916;49.798;10.022;2024-03-23T13:24:31;10.20;1.00
5779;DHT22;2916;49.798;10.022;2024-03-23T13:26:58;10.50;1.00
5779;DHT22;2916;49.798;10.022;2024-03-23T13:29:25;10.40;1.00
5779;DHT22;2916;49.798;10.022;2024-03-23T13:31:52;10.40;1.00
5779;DHT22;2916;49.798;10.022;2024-03-23T13:34:19;10.60;1.00
5779;DHT22;2916;49.798;10.022;2024-03-23T13:36:46;10.80;1.00
5779;DHT22;2916;49.798;10.022;2024-03-23T13:39:14;10.70;1.00
5779;DHT22;2916;49.798;10.022;2024-03-23T13:41:41;10.60;1.00
5779;DHT22;2916;49.798;10.022;2024-03-23T13:44:10;10.70;1.00
5779;DHT22;2916;49.798;10.022;2024-03-23T13:46:37;10.80;1.00
5779;DHT22;2916;49.798;10.022;2024-03-23T13:49:04;10.70;1.00
5779;DHT22;2916;49.798;10.022;2024-03-23T13:51:30;10.90;1.00
5779;DHT22;2916;49.798;10.022;2024-03-23T13:53:57;11.00;1.00
5779;DHT22;2916;49.798;10.022;2024-03-23T13:56:26;10.90;1.00
5779;DHT22;2916;49.798;10.022;2024-03-23T13:58:54;10.90;1.00
5779;DHT22;2916;49.798;10.022;2024-03-23T14:01:22;10.90;1.00
5779;DHT22;2916;49.798;10.022;2024-03-23T14:03:50;10.80;1.00
5779;DHT22;2916;49.798;10.022;2024-03-23T14:06:16;10.70;1.00
5779;DHT22;2916;49.798;10.022;2024-03-23T14:08:42;10.70;1.00
5779;DHT22;2916;49.798;10.022;2024-03-23T14:11:09;10.80;1.00
5779;DHT22;2916;49.798;10.022;2024-03-23T14:13:36;10.90;1.00
5779;DHT22;2916;49.798;10.022;2024-03-23T14:16:03;10.70;1.00
5779;DHT22;2916;49.798;10.022;2024-03-23T14:18:31;10.80;1.00
5779;DHT22;2916;49.798;10.022;2024-03-23T14:20:59;10.90;1.00
5779;DHT22;2916;49.798;10.022;2024-03-23T14:23:26;11.10;1.00
5779;DHT22;2916;49.798;10.022;2024-03-23T14:25:53;11.10;1.00
5779;DHT22;2916;49.798;10.022;2024-03-23T14:28:22;10.70;1.00
5779;DHT22;2916;49.798;10.022;2024-03-23T14:30:48;10.70;1.00
5779;DHT22;2916;49.798;10.022;2024-03-23T14:33:15;10.60;1.00
5779;DHT22;2916;49.798;10.022;2024-03-23T14:35:42;10.60;1.00
5779;DHT22;2916;49.798;10.022;2024-03-23T14:38:09;10.40;1.00
5779;DHT22;2916;49.798;10.022;2024-03-23T14:40:35;10.40;1.00
5779;DHT22;2916;49.798;10.022;2024-03-23T14:43:02;10.30;1.00
5779;DHT22;2916;49.798;10.022;2024-03-23T14:45:29;10.30;1.00
5779;DHT22;2916;49.798;10.022;2024-03-23T14:47:55;10.30;1.00
5779;DHT22;2916;49.798;10.022;2024-03-23T14:50:23;10.20;1.00
5779;DHT22;2916;49.798;10.022;2024-03-23T14:52:51;10.20;1.00
5779;DHT22;2916;49.798;10.022;2024-03-23T14:55:18;10.20;1.00
5779;DHT22;2916;49.798;10.022;2024-03-23T14:57:46;9.90;1.00
5779;DHT22;2916;49.798;10.022;2024-03-23T15:00:17;10.00;1.00
5779;DHT22;2916;49.798;10.022;2024-03-23T15:02:44;10.00;1.00
5779;DHT22;2916;49.798;10.022;2024-03-23T15:05:12;10.00;1.00
5779;DHT22;2916;49.798;10.022;2024-03-23T15:07:38;9.90;1.00
5779;DHT22;2916;49.798;10.022;2024-03-23T15:10:08;9.90;1.00
5779;DHT22;2916;49.798;10.022;2024-03-23T15:12:35;9.90;1.00
5779;DHT22;2916;49.798;10.022;2024-03-23T15:15:03;9.90;1.00
5779;DHT22;2916;49.798;10.022;2024-03-23T15:17:29;9.90;1.00
5779;DHT22;2916;49.798;10.022;2024-03-23T15:20:00;9.80;1.00
5779;DHT22;2916;49.798;10.022;2024-03-23T15:22:25;9.60;1.00
5779;DHT22;2916;49.798;10.022;2024-03-23T15:24:52;9.60;1.00
5779;DHT22;2916;49.798;10.022;2024-03-23T15:27:20;9.50;1.00
5779;DHT22;2916;49.798;10.022;2024-03-23T15:29:47;9.30;1.00
5779;DHT22;2916;49.798;10.022;2024-03-23T15:32:12;9.00;1.00
5779;DHT22;2916;49.798;10.022;2024-03-23T15:34:43;9.00;1.00
5779;DHT22;2916;49.798;10.022;2024-03-23T15:37:09;9.10;1.00
5779;DHT22;2916;49.798;10.022;2024-03-23T15:39:35;9.20;1.00
5779;DHT22;2916;49.798;10.022;2024-03-23T15:42:01;9.00;1.00
5779;DHT22;2916;49.798;10.022;2024-03-23T15:44:31;9.00;1.00
5779;DHT22;2916;49.798;10.022;2024-03-23T15:46:57;9.10;1.00
5779;DHT22;2916;49.798;10.022;2024-03-23T15:49:23;9.10;1.00
5779;DHT22;2916;49.798;10.022;2024-03-23T15:51:49;9.00;1.00
5779;DHT22;2916;49.798;10.022;2024-03-23T15:54:16;9.00;1.00
5779;DHT22;2916;49.798;10.022;2024-03-23T15:56:42;8.90;1.00
5779;DHT22;2916;49.798;10.022;2024-03-23T15:59:09;8.90;1.00
5779;DHT22;2916;49.798;10.022;2024-03-23T16:01:36;8.90;1.00
5779;DHT22;2916;49.798;10.022;2024-03-23T16:04:04;8.80;1.00
5779;DHT22;2916;49.798;10.022;2024-03-23T16:06:30;8.90;1.00
5779;DHT22;2916;49.798;10.022;2024-03-23T16:08:57;8.80;1.00
5779;DHT22;2916;49.798;10.022;2024-03-23T16:11:23;8.70;1.00
5779;DHT22;2916;49.798;10.022;2024-03-23T16:13:50;8.60;1.00
5779;DHT22;2916;49.798;10.022;2024-03-23T16:16:16;8.70;1.00
5779;DHT22;2916;49.798;10.022;2024-03-23T16:18:47;8.60;1.00
5779;DHT22;2916;49.798;10.022;2024-03-23T16:21:13;8.70;1.00
5779;DHT22;2916;49.798;10.022;2024-03-23T16:23:40;8.70;1.00
5779;DHT22;2916;49.798;10.022;2024-03-23T16:26:07;8.70;1.00
5779;DHT22;2916;49.798;10.022;2024-03-23T16:28:36;8.60;1.00
5779;DHT22;2916;49.798;10.022;2024-03-23T16:31:03;8.50;1.00
5779;DHT22;2916;49.798;10.022;2024-03-23T16:33:30;8.50;1.00
5779;DHT22;2916;49.798;10.022;2024-03-23T16:35:59;8.50;1.00
5779;DHT22;2916;49.798;10.022;2024-03-23T16:38:26;8.40;1.00
5779;DHT22;2916;49.798;10.022;2024-03-23T16:40:57;8.20;1.00
5779;DHT22;2916;49.798;10.022;2024-03-23T16:43:25;8.20;1.00
5779;DHT22;2916;49.798;10.022;2024-03-23T16:45:55;8.20;1.00
5779;DHT22;2916;49.798;10.022;2024-03-23T16:48:23;8.20;1.00
5779;DHT22;2916;49.798;10.022;2024-03-23T16:50:49;8.10;1.00
5779;DHT22;2916;49.798;10.022;2024-03-23T16:53:17;8.10;1.00
5779;DHT22;2916;49.798;10.022;2024-03-23T16:55:43;8.10;1.00
5779;DHT22;2916;49.798;10.022;2024-03-23T16:58:11;8.00;1.00
5779;DHT22;2916;49.798;10.022;2024-03-23T17:00:37;7.80;1.00
5779;DHT22;2916;49.798;10.022;2024-03-23T17:03:04;7.50;1.00